| time (UTC) | temp F | wind direction | speed knots | gust knots | rain 1hr in | rain 24hr in | rain mn in | humidity % | barometer mb |
| 20260503210557 | 84 | 326 | 3.5 | 7.8 | 0.00 | 0.00 | 0.00 | 48 | 1010.7 |
| 20260503210101 | 84 | 277 | 3.5 | 7.8 | 0.00 | 0.00 | 0.00 | 46 | 1010.8 |
| 20260503205557 | 84 | 294 | 1.7 | 7.8 | 0.00 | 0.00 | 0.00 | 48 | 1010.9 |
| 20260503205059 | 84 | 305 | 1.7 | 7.8 | 0.00 | 0.00 | 0.00 | 50 | 1010.9 |
| 20260503204559 | 83 | 277 | 2.6 | 7.8 | 0.00 | 0.00 | 0.00 | 52 | 1011.0 |
| 20260503204057 | 83 | 331 | 2.6 | 7.0 | 0.00 | 0.00 | 0.00 | 50 | 1011.1 |
| 20260503203557 | 83 | 321 | 1.7 | 7.0 | 0.00 | 0.00 | 0.00 | 52 | 1011.3 |
| 20260503203110 | 82 | 312 | 2.6 | 7.0 | 0.00 | 0.00 | 0.00 | 52 | 1011.3 |
| 20260503202557 | 81 | 264 | 3.5 | 7.0 | 0.00 | 0.00 | 0.00 | 55 | 1011.3 |
| 20260503202101 | 81 | 278 | 1.7 | 7.0 | 0.00 | 0.00 | 0.00 | 55 | 1011.4 |
| 20260503201557 | 81 | 269 | 3.5 | 7.0 | 0.00 | 0.00 | 0.00 | 55 | 1011.4 |
| 20260503201058 | 80 | 294 | 2.6 | 7.8 | 0.00 | 0.00 | 0.00 | 55 | 1011.5 |
| 20260503200601 | 80 | 299 | 4.3 | 7.8 | 0.00 | 0.00 | 0.00 | 55 | 1011.6 |
| 20260503200058 | 80 | 233 | 2.6 | 8.7 | 0.00 | 0.00 | 0.00 | 57 | 1011.6 |
| 20260503195557 | 80 | 234 | 2.6 | 8.7 | 0.00 | 0.00 | 0.00 | 58 | 1011.7 |
| 20260503195057 | 80 | 241 | 2.6 | 7.8 | 0.00 | 0.00 | 0.00 | 55 | 1011.8 |
| 20260503194558 | 79 | 273 | 1.7 | 7.0 | 0.00 | 0.00 | 0.00 | 56 | 1011.8 |
| 20260503194057 | 79 | 260 | 1.7 | 7.0 | 0.00 | 0.00 | 0.00 | 55 | 1011.9 |
| 20260503193558 | 79 | 252 | 1.7 | 5.2 | 0.00 | 0.00 | 0.00 | 55 | 1012.0 |
| 20260503193057 | 79 | 300 | 2.6 | 7.0 | 0.00 | 0.00 | 0.00 | 56 | 1012.0 |
| 20260503192558 | 78 | 286 | 1.7 | 7.8 | 0.00 | 0.00 | 0.00 | 54 | 1012.1 |
| 20260503192057 | 78 | 265 | 2.6 | 7.8 | 0.00 | 0.00 | 0.00 | 51 | 1012.2 |
| 20260503191555 | 78 | 349 | 2.6 | 7.8 | 0.00 | 0.00 | 0.00 | 50 | 1012.3 |
| 20260503191057 | 77 | 326 | 1.7 | 6.1 | 0.00 | 0.00 | 0.00 | 49 | 1012.4 |
| 20260503190557 | 77 | 272 | 2.6 | 6.1 | 0.00 | 0.00 | 0.00 | 48 | 1012.5 |
| 20260503190059 | 77 | 299 | 2.6 | 6.1 | 0.00 | 0.00 | 0.00 | 46 | 1012.5 |
| 20260503185558 | 77 | 293 | 1.7 | 6.1 | 0.00 | 0.00 | 0.00 | 47 | 1012.5 |
| 20260503185057 | 77 | 347 | 2.6 | 6.1 | 0.00 | 0.00 | 0.00 | 52 | 1012.6 |
| 20260503184557 | 76 | 317 | 2.6 | 5.2 | 0.00 | 0.00 | 0.00 | 51 | 1012.6 |
| 20260503184059 | 76 | 340 | 0.0 | 7.0 | 0.00 | 0.00 | 0.00 | 52 | 1012.7 |
| 20260503183556 | 75 | 331 | 2.6 | 7.0 | 0.00 | 0.00 | 0.00 | 52 | 1012.8 |
| 20260503183101 | 75 | 223 | 0.9 | 5.2 | 0.00 | 0.00 | 0.00 | 54 | 1012.9 |
| 20260503182556 | 75 | 313 | 1.7 | 5.2 | 0.00 | 0.00 | 0.00 | 52 | 1013.0 |
| 20260503182058 | 75 | 0 | 0.0 | 5.2 | 0.00 | 0.00 | 0.00 | 52 | 1013.0 |
| 20260503181605 | 74 | 243 | 0.9 | 5.2 | 0.00 | 0.00 | 0.00 | 54 | 1013.1 |
| 20260503181057 | 74 | 243 | 0.9 | 3.5 | 0.00 | 0.00 | 0.00 | 52 | 1013.1 |
| 20260503180558 | 74 | 273 | 0.9 | 3.5 | 0.00 | 0.00 | 0.00 | 52 | 1013.1 |
| 20260503180118 | 74 | 0 | 0.9 | 2.6 | 0.00 | 0.00 | 0.00 | 51 | 1013.1 |
| 20260503175558 | 73 | 0 | 0.9 | 3.5 | 0.00 | 0.00 | 0.00 | 51 | 1013.1 |
| 20260503175057 | 72 | 184 | 0.9 | 3.5 | 0.00 | 0.00 | 0.00 | 53 | 1013.1 |
| 20260503174559 | 72 | 254 | 0.0 | 5.2 | 0.00 | 0.00 | 0.00 | 52 | 1013.1 |
| 20260503174057 | 71 | 179 | 0.0 | 5.2 | 0.00 | 0.00 | 0.00 | 54 | 1013.2 |
| 20260503173558 | 71 | 117 | 1.7 | 5.2 | 0.00 | 0.00 | 0.00 | 53 | 1013.2 |
| 20260503173103 | 71 | 165 | 2.6 | 7.8 | 0.00 | 0.00 | 0.00 | 56 | 1013.3 |
| 20260503172557 | 71 | 190 | 2.6 | 7.8 | 0.00 | 0.00 | 0.00 | 56 | 1013.3 |
| 20260503172056 | 71 | 153 | 2.6 | 7.8 | 0.00 | 0.00 | 0.00 | 54 | 1013.3 |
| 20260503171603 | 71 | 130 | 3.5 | 8.7 | 0.00 | 0.00 | 0.00 | 51 | 1013.3 |
| 20260503171056 | 70 | 159 | 2.6 | 8.7 | 0.00 | 0.00 | 0.00 | 52 | 1013.2 |
| 20260503170558 | 70 | 167 | 1.7 | 8.7 | 0.00 | 0.00 | 0.00 | 51 | 1013.3 |
| 20260503150557 | 61 | 135 | 7.8 | 11.3 | 0.00 | 0.00 | 0.00 | 65 | 1013.9 |
| 20260503131056 | 59 | 160 | 9.6 | 15.6 | 0.00 | 0.00 | 0.00 | 72 | 1013.4 |
| 20260503130559 | 59 | 136 | 8.7 | 16.5 | 0.00 | 0.00 | 0.00 | 72 | 1013.5 |
| 20260503110558 | 60 | 123 | 7.0 | 12.2 | 0.00 | 0.00 | 0.00 | 76 | 1013.8 |
| 20260503081556 | 56 | 0 | 0.0 | 0.0 | 0.00 | 0.00 | 0.00 | 93 | 1014.2 |
| 20260503081058 | 56 | 0 | 0.0 | 0.0 | 0.00 | 0.00 | 0.00 | 93 | 1014.3 |
| 20260503080558 | 55 | 0 | 0.0 | 0.0 | 0.00 | 0.00 | 0.00 | 94 | 1014.3 |
| 20260503072557 | 55 | 0 | 0.0 | 1.7 | 0.00 | 0.00 | 0.00 | 93 | 1014.2 |
| 20260503072058 | 55 | 0 | 0.0 | 2.6 | 0.00 | 0.00 | 0.00 | 93 | 1014.2 |
| 20260503071605 | 55 | 152 | 0.9 | 2.6 | 0.00 | 0.00 | 0.00 | 94 | 1014.2 |
| 20260503071057 | 54 | 152 | 0.9 | 2.6 | 0.00 | 0.00 | 0.00 | 93 | 1014.2 |
| 20260503070557 | 54 | 152 | 0.0 | 3.5 | 0.00 | 0.00 | 0.00 | 92 | 1014.1 |
| 20260503070103 | 54 | 152 | 0.0 | 3.5 | 0.00 | 0.00 | 0.00 | 91 | 1014.1 |
| 20260503060110 | 59 | 0 | 0.0 | 1.7 | 0.00 | 0.00 | 0.00 | 87 | 1014.1 |
| 20260503055058 | 59 | 146 | 0.0 | 1.7 | 0.00 | 0.00 | 0.00 | 86 | 1014.0 |
| 20260503054601 | 59 | 0 | 0.0 | 1.7 | 0.00 | 0.00 | 0.00 | 86 | 1013.9 |
| 20260503054057 | 59 | 0 | 0.0 | 1.7 | 0.00 | 0.00 | 0.00 | 86 | 1013.8 |
| 20260503053555 | 59 | 0 | 0.0 | 1.7 | 0.00 | 0.00 | 0.00 | 86 | 1013.7 |
| 20260503053055 | 59 | 0 | 0.0 | 1.7 | 0.00 | 0.00 | 0.00 | 86 | 1013.7 |
| 20260503052557 | 59 | 0 | 0.9 | 1.7 | 0.00 | 0.00 | 0.00 | 86 | 1013.7 |
| 20260503052058 | 59 | 146 | 0.0 | 1.7 | 0.00 | 0.00 | 0.00 | 85 | 1013.7 |
| 20260503051555 | 60 | 0 | 0.0 | 1.7 | 0.00 | 0.00 | 0.00 | 83 | 1013.6 |
| 20260503051054 | 61 | 0 | 0.0 | 2.6 | 0.00 | 0.00 | 0.00 | 83 | 1013.6 |
| 20260503050556 | 61 | 0 | 0.0 | 2.6 | 0.00 | 0.00 | 0.00 | 82 | 1013.6 |
| 20260503050055 | 62 | 146 | 0.9 | 2.6 | 0.00 | 0.00 | 0.00 | 82 | 1013.5 |
| 20260503045556 | 62 | 0 | 0.0 | 2.6 | 0.00 | 0.00 | 0.00 | 81 | 1013.4 |
| 20260503045058 | 62 | 0 | 0.0 | 2.6 | 0.00 | 0.00 | 0.00 | 82 | 1013.4 |
| 20260503044609 | 62 | 0 | 0.9 | 2.6 | 0.00 | 0.00 | 0.00 | 82 | 1013.3 |
| 20260503044057 | 62 | 121 | 0.9 | 2.6 | 0.00 | 0.00 | 0.00 | 82 | 1013.4 |
| 20260503043557 | 62 | 121 | 0.9 | 3.5 | 0.00 | 0.00 | 0.00 | 83 | 1013.3 |
| 20260503043117 | 62 | 134 | 0.0 | 3.5 | 0.00 | 0.00 | 0.00 | 82 | 1013.3 |
| 20260503042557 | 62 | 134 | 1.7 | 3.5 | 0.00 | 0.00 | 0.00 | 81 | 1013.3 |
| 20260503042055 | 63 | 137 | 2.6 | 3.5 | 0.00 | 0.00 | 0.00 | 80 | 1013.2 |
| 20260503041601 | 63 | 137 | 0.0 | 1.7 | 0.00 | 0.00 | 0.00 | 79 | 1013.0 |
| 20260503041056 | 63 | 0 | 0.0 | 2.6 | 0.00 | 0.00 | 0.00 | 78 | 1013.0 |
| 20260503040558 | 64 | 0 | 0.9 | 3.5 | 0.00 | 0.00 | 0.00 | 78 | 1012.8 |
| 20260503040106 | 64 | 97 | 0.9 | 3.5 | 0.00 | 0.00 | 0.00 | 76 | 1012.7 |
| 20260503035558 | 65 | 97 | 1.7 | 3.5 | 0.00 | 0.00 | 0.00 | 75 | 1012.6 |
| 20260503035059 | 66 | 109 | 0.0 | 2.6 | 0.00 | 0.00 | 0.00 | 73 | 1012.5 |
| 20260503034557 | 68 | 96 | 0.9 | 2.6 | 0.00 | 0.00 | 0.00 | 70 | 1012.4 |
| 20260503034058 | 70 | 0 | 0.0 | 1.7 | 0.00 | 0.00 | 0.00 | 66 | 1012.3 |
| 20260503033558 | 71 | 140 | 0.0 | 1.7 | 0.00 | 0.00 | 0.00 | 64 | 1012.2 |
| 20260503033110 | 71 | 0 | 0.0 | 0.9 | 0.00 | 0.00 | 0.00 | 62 | 1012.1 |
| 20260503032557 | 72 | 0 | 0.0 | 0.9 | 0.00 | 0.00 | 0.00 | 61 | 1012.1 |
| 20260503032057 | 72 | 0 | 0.0 | 1.7 | 0.00 | 0.00 | 0.00 | 61 | 1012.0 |
| 20260503031604 | 73 | 0 | 0.0 | 1.7 | 0.00 | 0.00 | 0.00 | 59 | 1012.0 |
| 20260503031057 | 73 | 0 | 0.0 | 1.7 | 0.00 | 0.00 | 0.00 | 59 | 1011.9 |
| 20260503030557 | 73 | 0 | 0.0 | 3.5 | 0.00 | 0.00 | 0.00 | 60 | 1011.8 |
| 20260503030058 | 74 | 0 | 0.9 | 3.5 | 0.00 | 0.00 | 0.00 | 60 | 1011.8 |
| 20260503025557 | 75 | 148 | 0.9 | 2.6 | 0.00 | 0.00 | 0.00 | 58 | 1011.7 |
| 20260503025057 | 75 | 0 | 0.0 | 3.5 | 0.00 | 0.00 | 0.00 | 56 | 1011.7 |
| 20260503024600 | 76 | 154 | 0.9 | 3.5 | 0.00 | 0.00 | 0.00 | 55 | 1011.7 |
| 20260503024056 | 77 | 0 | 0.0 | 3.5 | 0.00 | 0.00 | 0.00 | 53 | 1011.6 |
| 20260503023600 | 77 | 155 | 0.0 | 3.5 | 0.00 | 0.00 | 0.00 | 53 | 1011.6 |
| 20260503023105 | 77 | 0 | 0.0 | 2.6 | 0.00 | 0.00 | 0.00 | 52 | 1011.6 |
| 20260503022557 | 77 | 132 | 0.0 | 2.6 | 0.00 | 0.00 | 0.00 | 53 | 1011.6 |
| 20260503022057 | 77 | 131 | 0.0 | 2.6 | 0.00 | 0.00 | 0.00 | 52 | 1011.5 |
| 20260503021606 | 78 | 200 | 0.0 | 1.7 | 0.00 | 0.00 | 0.00 | 52 | 1011.5 |
| 20260503021057 | 78 | 126 | 0.0 | 4.3 | 0.00 | 0.00 | 0.00 | 52 | 1011.5 |
| 20260503020557 | 79 | 0 | 0.0 | 5.2 | 0.00 | 0.00 | 0.00 | 51 | 1011.5 |
| 20260503020108 | 79 | 129 | 1.7 | 5.2 | 0.00 | 0.00 | 0.00 | 51 | 1011.5 |
| 20260503015557 | 79 | 232 | 0.9 | 2.6 | 0.00 | 0.00 | 0.00 | 49 | 1011.5 |
| 20260503015057 | 80 | 253 | 0.9 | 3.5 | 0.00 | 0.00 | 0.00 | 49 | 1011.5 |
| 20260503014600 | 80 | 221 | 0.9 | 3.5 | 0.00 | 0.00 | 0.00 | 48 | 1011.5 |
| 20260503014057 | 81 | 0 | 0.0 | 1.7 | 0.00 | 0.00 | 0.00 | 47 | 1011.5 |
| 20260503013557 | 80 | 0 | 0.0 | 3.5 | 0.00 | 0.00 | 0.00 | 48 | 1011.4 |
| 20260503013106 | 80 | 0 | 0.9 | 3.5 | 0.00 | 0.00 | 0.00 | 48 | 1011.5 |
| 20260503012558 | 80 | 249 | 0.9 | 4.3 | 0.00 | 0.00 | 0.00 | 48 | 1011.5 |
| 20260503012054 | 80 | 264 | 0.9 | 4.3 | 0.00 | 0.00 | 0.00 | 49 | 1011.4 |
| 20260503011608 | 80 | 231 | 1.7 | 4.3 | 0.00 | 0.00 | 0.00 | 48 | 1011.4 |
| 20260503011057 | 80 | 261 | 1.7 | 3.5 | 0.00 | 0.00 | 0.00 | 48 | 1011.5 |
| 20260503010557 | 80 | 0 | 0.9 | 3.5 | 0.00 | 0.00 | 0.00 | 48 | 1011.5 |
| 20260503010100 | 80 | 264 | 0.9 | 5.2 | 0.00 | 0.00 | 0.00 | 48 | 1011.4 |
| 20260503005600 | 80 | 235 | 0.9 | 5.2 | 0.00 | 0.00 | 0.00 | 49 | 1011.4 |
| 20260503005058 | 79 | 278 | 2.6 | 5.2 | 0.00 | 0.00 | 0.00 | 49 | 1011.4 |
| 20260503004607 | 79 | 239 | 0.9 | 6.1 | 0.00 | 0.00 | 0.00 | 49 | 1011.4 |
| 20260503004057 | 79 | 0 | 1.7 | 6.1 | 0.00 | 0.00 | 0.00 | 49 | 1011.5 |
| 20260503003557 | 79 | 238 | 2.6 | 6.1 | 0.00 | 0.00 | 0.00 | 51 | 1011.5 |
| 20260503003108 | 79 | 254 | 0.9 | 6.1 | 0.00 | 0.00 | 0.00 | 51 | 1011.5 |
| 20260503002558 | 79 | 273 | 2.6 | 6.1 | 0.00 | 0.00 | 0.00 | 51 | 1011.5 |
| 20260503002057 | 79 | 229 | 1.7 | 5.2 | 0.00 | 0.00 | 0.00 | 51 | 1011.6 |
| 20260503001557 | 79 | 306 | 1.7 | 6.1 | 0.00 | 0.00 | 0.00 | 51 | 1011.6 |
| 20260503001057 | 79 | 248 | 1.7 | 6.1 | 0.00 | 0.00 | 0.00 | 52 | 1011.5 |
| 20260503000557 | 79 | 260 | 1.7 | 5.2 | 0.00 | 0.00 | 0.00 | 52 | 1011.6 |
| 20260503000109 | 79 | 258 | 1.7 | 5.2 | 0.00 | 0.00 | 0.00 | 51 | 1011.7 |
| 20260502235557 | 79 | 0 | 0.0 | 5.2 | 0.00 | 0.00 | 0.00 | 50 | 1011.7 |
| 20260502235057 | 79 | 0 | 1.7 | 5.2 | 0.00 | 0.00 | 0.00 | 52 | 1011.8 |
| 20260502234557 | 78 | 244 | 1.7 | 5.2 | 0.00 | 0.00 | 0.00 | 51 | 1011.8 |
| 20260502234057 | 78 | 0 | 0.0 | 5.2 | 0.00 | 0.00 | 0.00 | 52 | 1011.9 |
| 20260502233556 | 78 | 251 | 2.6 | 5.2 | 0.00 | 0.00 | 0.00 | 52 | 1012.0 |
| 20260502233100 | 78 | 351 | 1.7 | 4.3 | 0.00 | 0.00 | 0.00 | 54 | 1012.1 |
| 20260502232557 | 78 | 263 | 0.0 | 3.5 | 0.00 | 0.00 | 0.00 | 57 | 1012.2 |
| 20260502232057 | 77 | 267 | 0.9 | 5.2 | 0.00 | 0.00 | 0.00 | 56 | 1012.3 |
| 20260502231621 | 77 | 236 | 0.9 | 5.2 | 0.00 | 0.00 | 0.00 | 59 | 1012.4 |
| 20260502231058 | 76 | 0 | 2.6 | 5.2 | 0.00 | 0.00 | 0.00 | 57 | 1012.5 |
| 20260502230558 | 76 | 288 | 0.9 | 6.1 | 0.00 | 0.00 | 0.00 | 58 | 1012.5 |
| 20260502230113 | 76 | 346 | 0.9 | 6.1 | 0.00 | 0.00 | 0.00 | 58 | 1012.6 |
| 20260502225557 | 75 | 309 | 0.0 | 3.5 | 0.00 | 0.00 | 0.00 | 62 | 1012.7 |
| 20260502225057 | 75 | 281 | 1.7 | 3.5 | 0.00 | 0.00 | 0.00 | 60 | 1012.7 |
| 20260502224557 | 74 | 250 | 0.9 | 5.2 | 0.00 | 0.00 | 0.00 | 61 | 1012.8 |
| 20260502224057 | 74 | 78 | 0.9 | 5.2 | 0.00 | 0.00 | 0.00 | 60 | 1012.8 |
| 20260502223557 | 74 | 258 | 1.7 | 5.2 | 0.00 | 0.00 | 0.00 | 62 | 1012.9 |
| 20260502223103 | 74 | 226 | 1.7 | 4.3 | 0.00 | 0.00 | 0.00 | 61 | 1013.1 |
| 20260502222557 | 73 | 195 | 0.9 | 3.5 | 0.00 | 0.00 | 0.00 | 61 | 1013.2 |
| 20260502222100 | 73 | 286 | 0.9 | 3.5 | 0.00 | 0.00 | 0.00 | 62 | 1013.2 |
| 20260502221556 | 73 | 0 | 0.9 | 6.1 | 0.00 | 0.00 | 0.00 | 63 | 1013.4 |
| 20260502221058 | 72 | 123 | 0.0 | 6.1 | 0.00 | 0.00 | 0.00 | 64 | 1013.4 |
| 20260502220558 | 72 | 275 | 0.9 | 5.2 | 0.00 | 0.00 | 0.00 | 64 | 1013.6 |
| 20260502215557 | 71 | 325 | 1.7 | 7.0 | 0.00 | 0.00 | 0.00 | 66 | 1013.8 |
| 20260502215058 | 70 | 281 | 2.6 | 7.0 | 0.00 | 0.00 | 0.00 | 67 | 1013.9 |
| 20260502214557 | 70 | 284 | 3.5 | 7.0 | 0.00 | 0.00 | 0.00 | 67 | 1013.9 |
| 20260502214057 | 70 | 332 | 1.7 | 7.0 | 0.00 | 0.00 | 0.00 | 67 | 1014.0 |
| 20260502213557 | 69 | 315 | 2.6 | 7.0 | 0.00 | 0.00 | 0.00 | 67 | 1014.0 |
| 20260502213057 | 68 | 348 | 2.6 | 7.0 | 0.00 | 0.00 | 0.00 | 70 | 1014.0 |
| 20260502212557 | 68 | 313 | 4.3 | 7.0 | 0.00 | 0.00 | 0.00 | 68 | 1014.1 |
| 20260502212058 | 67 | 271 | 2.6 | 6.1 | 0.00 | 0.00 | 0.00 | 69 | 1014.1 |
| 20260502211557 | 67 | 262 | 2.6 | 7.0 | 0.00 | 0.00 | 0.00 | 69 | 1014.1 |
| 20260502211055 | 67 | 267 | 3.5 | 7.0 | 0.00 | 0.00 | 0.00 | 70 | 1014.2 |